createdAt,value
2018-08-22T00:00:50.656Z,63.87
2018-08-22T00:03:21.080Z,64.14
2018-08-22T00:05:50.800Z,63.63
2018-08-22T00:08:53.210Z,64.26
2018-08-22T00:11:23.292Z,64.64
2018-08-22T00:13:53.374Z,64.55
2018-08-22T00:16:23.140Z,64.43
2018-08-22T00:18:53.016Z,64.64
2018-08-22T00:21:22.808Z,64.64
2018-08-22T00:23:52.604Z,64.50
2018-08-22T00:26:22.703Z,66.26
2018-08-22T00:28:52.755Z,66.92
2018-08-22T00:31:22.722Z,67.18
2018-08-22T00:33:52.815Z,66.98
2018-08-22T00:36:22.931Z,66.78
2018-08-22T00:38:52.746Z,66.53
2018-08-22T00:41:22.658Z,66.62
2018-08-22T00:43:53.132Z,66.48
2018-08-22T00:46:23.127Z,66.72
2018-08-22T00:48:53.052Z,66.66
2018-08-22T00:51:22.755Z,66.57
2018-08-22T00:53:52.719Z,66.59
2018-08-22T00:56:22.650Z,66.92
2018-08-22T00:58:52.740Z,66.83
2018-08-22T01:01:22.609Z,66.83
2018-08-22T01:03:52.702Z,67.15
2018-08-22T01:06:22.731Z,67.22
2018-08-22T01:08:52.619Z,66.96
2018-08-22T01:11:22.709Z,67.00
2018-08-22T01:13:52.644Z,67.41
2018-08-22T01:16:22.723Z,67.25
2018-08-22T01:18:52.663Z,67.19
2018-08-22T01:21:22.728Z,68.14
2018-08-22T01:23:52.745Z,68.00
2018-08-22T01:26:22.729Z,68.03
2018-08-22T01:28:52.803Z,68.24
2018-08-22T01:31:22.995Z,68.42
2018-08-22T01:33:52.740Z,68.63
2018-08-22T01:36:22.747Z,68.62
2018-08-22T01:38:52.639Z,68.64
2018-08-22T01:41:22.761Z,68.77
2018-08-22T01:43:52.669Z,68.16
2018-08-22T01:46:22.721Z,68.52
2018-08-22T01:48:52.652Z,68.74
2018-08-22T01:51:22.579Z,68.98
2018-08-22T01:53:52.652Z,68.77
2018-08-22T01:56:22.605Z,68.81
2018-08-22T01:58:56.563Z,68.36
2018-08-22T02:01:26.614Z,68.45
2018-08-22T02:03:56.716Z,67.90
2018-08-22T02:06:26.648Z,68.38
2018-08-22T02:08:56.648Z,68.51
2018-08-22T02:11:26.734Z,68.72
2018-08-22T02:13:56.746Z,68.70
2018-08-22T02:16:26.717Z,68.73
2018-08-22T02:18:56.809Z,68.50
2018-08-22T02:21:26.544Z,68.61
2018-08-22T02:23:56.323Z,68.68
2018-08-22T02:26:26.395Z,68.59
2018-08-22T02:28:56.125Z,68.50
2018-08-22T02:31:25.998Z,68.56
2018-08-22T02:33:55.770Z,68.73
2018-08-22T02:36:25.601Z,68.63
2018-08-22T02:38:55.351Z,68.38
2018-08-22T02:41:25.331Z,68.58
2018-08-22T02:43:55.547Z,68.32
2018-08-22T02:46:25.258Z,68.27
2018-08-22T02:48:55.077Z,68.42
2018-08-22T02:51:26.340Z,68.71
2018-08-22T02:53:56.777Z,68.77
2018-08-22T02:56:27.680Z,69.03
2018-08-22T02:58:58.521Z,69.37
2018-08-22T03:01:29.692Z,69.44
2018-08-22T03:04:00.609Z,69.76
2018-08-22T03:06:31.381Z,69.89
2018-08-22T03:09:02.821Z,69.54
2018-08-22T03:11:33.541Z,69.31
2018-08-22T03:14:04.823Z,69.20
2018-08-22T03:16:35.688Z,68.91
2018-08-22T03:19:06.811Z,69.08
2018-08-22T03:21:37.533Z,69.03
2018-08-22T03:24:08.766Z,69.19
2018-08-22T03:26:39.501Z,68.99
2018-08-22T03:29:10.720Z,69.18
2018-08-22T03:31:42.185Z,69.39
2018-08-22T03:34:12.022Z,69.46
2018-08-22T03:36:42.645Z,69.49
2018-08-22T03:39:13.717Z,69.55
2018-08-22T03:41:44.446Z,69.73
2018-08-22T03:44:15.810Z,69.48
2018-08-22T03:46:46.533Z,69.52
2018-08-22T03:49:17.780Z,69.71
2018-08-22T03:51:48.480Z,69.00
2018-08-22T03:54:19.779Z,69.50
2018-08-22T03:56:50.477Z,69.64
2018-08-22T03:59:21.724Z,69.91
2018-08-22T04:01:52.452Z,69.70
2018-08-22T04:04:23.800Z,69.69
2018-08-22T04:06:54.520Z,70.08
2018-08-22T04:09:25.813Z,70.12
2018-08-22T04:11:56.554Z,70.17
2018-08-22T04:14:27.830Z,70.21
2018-08-22T04:16:58.544Z,70.29
2018-08-22T04:19:29.786Z,70.25
2018-08-22T04:22:01.012Z,70.72
2018-08-22T04:24:31.955Z,71.13
2018-08-22T04:27:02.617Z,71.32
2018-08-22T04:29:33.869Z,71.32
2018-08-22T04:32:05.713Z,71.40
2018-08-22T04:34:35.596Z,71.14
2018-08-22T04:37:06.816Z,71.36
2018-08-22T04:39:37.740Z,71.22
2018-08-22T04:42:08.449Z,71.28
2018-08-22T04:44:39.960Z,72.01
2018-08-22T04:47:10.777Z,73.45
2018-08-22T04:49:41.655Z,72.02
2018-08-22T04:52:12.761Z,72.97
2018-08-22T04:54:43.597Z,73.35
2018-08-22T04:57:14.455Z,74.58
2018-08-22T04:59:45.848Z,72.82
2018-08-22T05:02:16.588Z,73.52
2018-08-22T05:04:47.496Z,74.59
2018-08-22T05:07:18.651Z,74.04
2018-08-22T05:09:49.565Z,73.59
2018-08-22T05:12:20.390Z,73.06
2018-08-22T05:14:53.533Z,74.83
2018-08-22T05:17:23.240Z,73.97
2018-08-22T05:19:53.707Z,74.00
2018-08-22T05:22:24.492Z,74.45
2018-08-22T05:24:55.681Z,73.95
2018-08-22T05:27:27.066Z,75.68
2018-08-22T05:29:57.706Z,76.17
2018-08-22T05:32:29.060Z,74.66
2018-08-22T05:34:59.902Z,71.81
2018-08-22T05:37:30.948Z,70.46
2018-08-22T05:40:01.743Z,69.35
2018-08-22T05:42:32.516Z,68.54
2018-08-22T05:45:04.005Z,67.45
2018-08-22T05:47:34.869Z,66.98
2018-08-22T05:50:06.084Z,67.26
2018-08-22T05:52:36.748Z,67.12
2018-08-22T05:55:07.451Z,67.46
2018-08-22T05:57:39.112Z,67.83
2018-08-22T06:00:09.649Z,68.02
2018-08-22T06:02:40.785Z,67.98
2018-08-22T06:05:10.504Z,68.12
2018-08-22T06:07:41.738Z,68.07
2018-08-22T06:10:12.471Z,67.60
2018-08-22T06:12:43.898Z,67.51
2018-08-22T06:15:15.230Z,66.99
2018-08-22T06:17:45.845Z,66.40
2018-08-22T06:20:16.685Z,65.86
2018-08-22T06:22:48.038Z,65.76
2018-08-22T06:25:18.625Z,65.08
2018-08-22T06:27:49.474Z,64.30
2018-08-22T06:30:20.508Z,64.98
2018-08-22T06:32:51.405Z,64.88
2018-08-22T06:35:22.500Z,64.75
2018-08-22T06:37:53.624Z,64.24
2018-08-22T06:40:24.213Z,64.73
2018-08-22T06:42:55.542Z,64.03
2018-08-22T06:45:26.464Z,63.55
2018-08-22T06:47:58.989Z,62.90
2018-08-22T06:50:28.498Z,62.71
2018-08-22T06:52:59.625Z,62.35
2018-08-22T06:55:30.085Z,62.21
2018-08-22T06:58:01.397Z,61.92
2018-08-22T07:00:32.598Z,61.48
2018-08-22T07:03:03.277Z,60.33
2018-08-22T07:05:34.613Z,60.26
2018-08-22T07:08:05.583Z,60.00
2018-08-22T07:10:36.241Z,59.03
2018-08-22T07:13:07.537Z,59.97
2018-08-22T07:15:38.333Z,58.66
2018-08-22T07:18:09.829Z,58.39
2018-08-22T07:20:40.426Z,58.33
2018-08-22T07:23:11.846Z,58.01
2018-08-22T07:25:42.371Z,58.23
2018-08-22T07:28:13.700Z,57.51
2018-08-22T07:30:44.373Z,56.64
2018-08-22T07:33:15.612Z,56.03
2018-08-22T07:35:46.155Z,56.32
2018-08-22T07:38:17.473Z,56.70
2018-08-22T07:40:48.108Z,54.63
2018-08-22T07:43:19.723Z,53.81
2018-08-22T07:45:50.160Z,52.30
2018-08-22T07:48:21.546Z,51.08
2018-08-22T07:50:52.057Z,49.42
2018-08-22T07:53:23.475Z,48.77
2018-08-22T07:55:54.306Z,49.44
2018-08-22T07:58:25.493Z,48.91
2018-08-22T08:00:56.417Z,48.55
2018-08-22T08:03:27.428Z,49.00
2018-08-22T08:05:58.400Z,48.31
2018-08-22T08:08:29.474Z,48.53
2018-08-22T08:11:00.495Z,47.73
2018-08-22T08:13:31.393Z,47.38
2018-08-22T08:16:01.615Z,47.08
2018-08-22T08:18:32.342Z,46.42
2018-08-22T08:21:04.467Z,46.03
2018-08-22T08:23:34.254Z,45.22
2018-08-22T08:26:05.644Z,45.54
2018-08-22T08:28:36.406Z,44.65
2018-08-22T08:31:07.630Z,43.91
2018-08-22T08:33:38.401Z,44.38
2018-08-22T08:36:09.580Z,44.17
2018-08-22T08:38:40.296Z,43.95
2018-08-22T08:41:11.418Z,42.38
2018-08-22T08:43:42.717Z,42.49
2018-08-22T08:46:13.173Z,43.01
2018-08-22T08:48:44.538Z,42.36
2018-08-22T08:51:15.132Z,43.44
2018-08-22T08:53:46.765Z,43.11
2018-08-22T08:56:17.326Z,42.38
2018-08-22T08:58:48.513Z,42.54
2018-08-22T09:01:19.231Z,41.76
2018-08-22T09:03:50.713Z,41.84
2018-08-22T09:06:21.530Z,41.58
2018-08-22T09:08:52.145Z,41.09
2018-08-22T09:11:23.471Z,40.81
2018-08-22T09:13:58.276Z,40.47
2018-08-22T09:16:27.839Z,40.82
2018-08-22T09:18:57.358Z,39.97
2018-08-22T09:21:27.523Z,39.06
2018-08-22T09:23:58.181Z,39.51
2018-08-22T09:26:29.421Z,39.45
2018-08-22T09:29:00.420Z,39.26
2018-08-22T09:31:30.921Z,39.42
2018-08-22T09:34:01.445Z,38.87
2018-08-22T09:36:32.676Z,39.17
2018-08-22T09:39:03.301Z,38.19
2018-08-22T09:41:34.868Z,38.55
2018-08-22T09:44:05.663Z,37.84
2018-08-22T09:46:36.419Z,38.35
2018-08-22T09:49:07.286Z,38.02
2018-08-22T09:51:38.488Z,37.74
2018-08-22T09:54:09.550Z,37.83
2018-08-22T09:56:40.189Z,37.93
2018-08-22T09:59:11.393Z,37.47
2018-08-22T10:01:43.096Z,37.81
2018-08-22T10:04:13.365Z,37.54
2018-08-22T10:06:46.590Z,38.21
2018-08-22T10:09:20.877Z,38.31
2018-08-22T10:11:50.498Z,37.61
2018-08-22T10:14:20.080Z,37.72
2018-08-22T10:16:50.212Z,36.95
2018-08-22T10:19:19.750Z,37.19
2018-08-22T10:21:50.389Z,37.19
2018-08-22T10:24:21.412Z,36.11
2018-08-22T10:26:52.394Z,36.53
2018-08-22T10:29:23.253Z,37.06
2018-08-22T10:31:53.946Z,37.14
2018-08-22T10:34:24.813Z,36.13
2018-08-22T10:36:55.253Z,35.86
2018-08-22T10:39:26.714Z,36.49
2018-08-22T10:41:57.409Z,34.91
2018-08-22T10:44:28.530Z,34.89
2018-08-22T10:46:59.163Z,34.93
2018-08-22T10:49:30.406Z,34.86
2018-08-22T10:52:01.509Z,34.96
2018-08-22T10:54:32.189Z,33.99
2018-08-22T10:57:03.357Z,34.63
2018-08-22T10:59:34.585Z,34.05
2018-08-22T11:02:05.238Z,34.60
2018-08-22T11:04:36.528Z,34.61
2018-08-22T11:07:07.125Z,34.32
2018-08-22T11:09:38.800Z,34.21
2018-08-22T11:12:09.296Z,33.72
2018-08-22T11:14:40.601Z,33.73
2018-08-22T11:17:11.089Z,33.65
2018-08-22T11:19:42.220Z,33.50
2018-08-22T11:22:24.280Z,33.67
2018-08-22T11:25:04.734Z,33.46
2018-08-22T11:27:45.330Z,32.65
2018-08-22T11:30:25.665Z,33.17
2018-08-22T11:33:06.167Z,32.60
2018-08-22T11:35:34.086Z,32.08
2018-08-22T11:38:03.560Z,32.05
2018-08-22T11:40:33.465Z,31.44
2018-08-22T11:43:02.941Z,31.08
2018-08-22T11:45:32.496Z,30.43
2018-08-22T11:48:02.120Z,30.66
2018-08-22T11:50:31.593Z,30.31
2018-08-22T11:53:01.645Z,30.60
2018-08-22T11:55:31.510Z,30.83
2018-08-22T11:58:01.428Z,31.03
2018-08-22T12:00:31.004Z,30.61
2018-08-22T12:03:00.712Z,30.62
2018-08-22T12:05:30.452Z,29.61
2018-08-22T12:08:00.056Z,29.80
2018-08-22T12:10:31.502Z,28.51
2018-08-22T12:13:03.452Z,29.10
2018-08-22T12:15:34.138Z,28.54
2018-08-22T12:18:03.895Z,28.67
2018-08-22T12:20:33.565Z,29.47
2018-08-22T12:23:03.605Z,28.73
2018-08-22T12:25:33.308Z,29.42
2018-08-22T12:28:03.134Z,28.93
2018-08-22T12:30:32.816Z,28.27
2018-08-22T12:33:02.765Z,27.83
2018-08-22T12:35:32.601Z,27.95
2018-08-22T12:38:02.397Z,28.78
2018-08-22T12:40:31.990Z,27.95
2018-08-22T12:43:01.790Z,27.88
2018-08-22T12:45:31.803Z,27.92
2018-08-22T12:48:01.495Z,27.86
2018-08-22T12:50:31.466Z,27.64
2018-08-22T12:53:01.128Z,27.21
2018-08-22T12:55:30.780Z,27.93
2018-08-22T12:58:00.867Z,27.74
2018-08-22T13:00:30.440Z,26.78
2018-08-22T13:03:00.445Z,27.25
2018-08-22T13:05:30.306Z,26.99
2018-08-22T13:08:00.094Z,25.89
2018-08-22T13:10:30.472Z,26.64
2018-08-22T13:13:00.529Z,26.62
2018-08-22T13:15:30.327Z,25.88
2018-08-22T13:18:00.425Z,25.39
2018-08-22T13:20:30.401Z,25.11
2018-08-22T13:23:01.990Z,26.20
2018-08-22T13:25:32.816Z,26.42
2018-08-22T13:28:03.660Z,26.13
2018-08-22T13:30:34.889Z,26.05
2018-08-22T13:33:05.776Z,26.11
2018-08-22T13:35:36.975Z,26.13
2018-08-22T13:38:07.929Z,25.58
2018-08-22T13:40:38.630Z,25.13
2018-08-22T13:43:09.677Z,25.28
2018-08-22T13:45:40.494Z,25.46
2018-08-22T13:48:11.545Z,26.05
2018-08-22T13:50:42.755Z,26.27
2018-08-22T13:53:13.741Z,25.40
2018-08-22T13:55:44.587Z,24.97
2018-08-22T13:58:15.729Z,24.80
2018-08-22T14:00:46.484Z,25.23
2018-08-22T14:03:17.804Z,24.96
2018-08-22T14:05:48.593Z,25.36
2018-08-22T14:08:19.570Z,25.44
2018-08-22T14:10:50.421Z,25.00
2018-08-22T14:13:21.941Z,24.80
2018-08-22T14:15:52.802Z,24.91
2018-08-22T14:18:23.629Z,24.99
2018-08-22T14:20:54.562Z,25.08
2018-08-22T14:23:25.577Z,25.32
2018-08-22T14:25:56.547Z,24.88
2018-08-22T14:28:27.645Z,25.15
2018-08-22T14:30:58.500Z,25.27
2018-08-22T14:33:36.476Z,25.52
2018-08-22T14:36:06.688Z,24.98
2018-08-22T14:38:36.662Z,25.27
2018-08-22T14:41:06.569Z,25.27
2018-08-22T14:43:36.415Z,25.71
2018-08-22T14:46:06.328Z,25.66
2018-08-22T14:48:36.601Z,25.17
2018-08-22T14:51:07.107Z,25.46
2018-08-22T14:53:36.957Z,25.95
2018-08-22T14:56:07.852Z,25.41
2018-08-22T14:58:38.839Z,27.31
2018-08-22T15:01:09.621Z,27.10
2018-08-22T15:03:40.590Z,27.20
2018-08-22T15:06:11.436Z,26.72
2018-08-22T15:08:42.705Z,25.28
2018-08-22T15:11:13.482Z,25.74
2018-08-22T15:13:44.973Z,26.20
2018-08-22T15:16:15.801Z,26.30
2018-08-22T15:18:46.774Z,26.27
2018-08-22T15:21:17.583Z,26.37
2018-08-22T15:23:48.557Z,25.31
2018-08-22T15:26:19.451Z,25.71
2018-08-22T15:28:50.491Z,25.37
2018-08-22T15:31:21.430Z,25.51
2018-08-22T15:33:53.135Z,25.93
2018-08-22T15:36:25.728Z,26.18
2018-08-22T15:38:55.717Z,25.67
2018-08-22T15:41:25.489Z,25.89
2018-08-22T15:43:56.921Z,26.42
2018-08-22T15:46:27.660Z,26.38
2018-08-22T15:48:58.532Z,25.72
2018-08-22T15:51:29.312Z,26.24
2018-08-22T15:54:17.891Z,25.83
2018-08-22T15:56:47.884Z,26.29
2018-08-22T15:59:19.845Z,25.95
2018-08-22T16:01:49.918Z,26.03
2018-08-22T16:04:20.030Z,25.28
2018-08-22T16:07:21.764Z,26.75
2018-08-22T16:09:51.640Z,27.04
2018-08-22T16:12:21.753Z,27.59
2018-08-22T16:14:51.629Z,27.62
2018-08-22T16:17:21.835Z,27.60
2018-08-22T16:19:52.102Z,26.67
2018-08-22T16:22:21.942Z,27.47
2018-08-22T16:24:52.703Z,27.42
2018-08-22T16:27:22.773Z,28.24
2018-08-22T16:29:53.042Z,28.91
2018-08-22T16:32:23.050Z,28.65
2018-08-22T16:34:52.987Z,28.06
2018-08-22T16:37:28.069Z,28.29
2018-08-22T16:39:57.874Z,28.48
2018-08-22T16:42:32.719Z,29.45
2018-08-22T16:45:02.889Z,30.07
2018-08-22T16:47:35.677Z,30.03
2018-08-22T16:50:07.416Z,29.48
2018-08-22T16:52:37.732Z,29.40
2018-08-22T16:55:21.913Z,29.42
2018-08-22T16:57:52.389Z,29.75
2018-08-22T17:00:36.726Z,29.77
2018-08-22T17:03:08.196Z,29.93
2018-08-22T17:05:37.949Z,30.28
2018-08-22T17:08:08.134Z,30.30
2018-08-22T17:10:51.534Z,31.05
2018-08-22T17:13:30.563Z,30.86
2018-08-22T17:16:02.471Z,31.31
2018-08-22T17:18:32.221Z,31.69
2018-08-22T17:21:01.959Z,32.25
2018-08-22T17:23:31.812Z,32.71
2018-08-22T17:26:01.680Z,33.25
2018-08-22T17:28:36.626Z,33.06
2018-08-22T17:31:06.617Z,33.54
2018-08-22T17:33:38.856Z,33.63
2018-08-22T17:36:09.921Z,33.70
2018-08-22T17:38:41.980Z,33.70
2018-08-22T17:41:11.733Z,33.84
2018-08-22T17:43:57.680Z,33.70
2018-08-22T17:46:29.521Z,34.31
2018-08-22T17:48:59.529Z,34.35
2018-08-22T17:51:29.502Z,34.40
2018-08-22T17:53:59.358Z,34.26
2018-08-22T17:56:29.205Z,34.25
2018-08-22T17:58:58.945Z,34.32
2018-08-22T18:01:30.366Z,35.20
2018-08-22T18:04:00.087Z,34.60
2018-08-22T18:06:30.505Z,34.82
2018-08-22T18:09:01.196Z,34.86
2018-08-22T18:11:30.920Z,35.46
2018-08-22T18:14:00.760Z,35.32
2018-08-22T18:16:30.881Z,35.29
2018-08-22T18:19:00.842Z,35.42
2018-08-22T18:21:46.857Z,35.64
2018-08-22T18:24:16.881Z,36.56
2018-08-22T18:26:48.553Z,36.25
2018-08-22T18:29:18.850Z,36.63
2018-08-22T18:31:48.852Z,36.79
2018-08-22T18:34:18.821Z,36.38
2018-08-22T18:36:49.046Z,37.34
2018-08-22T18:39:18.947Z,37.01
2018-08-22T18:41:48.714Z,37.69
2018-08-22T18:44:18.937Z,37.43
2018-08-22T18:46:48.834Z,37.72
2018-08-22T18:49:18.780Z,37.65
2018-08-22T18:51:48.821Z,37.40
2018-08-22T18:54:19.216Z,37.89
2018-08-22T18:56:49.196Z,37.95
2018-08-22T18:59:26.537Z,38.13
2018-08-22T19:01:56.616Z,37.63
2018-08-22T19:04:27.216Z,37.45
2018-08-22T19:06:57.057Z,38.36
2018-08-22T19:09:26.877Z,38.13
2018-08-22T19:11:59.890Z,38.19
2018-08-22T19:14:40.318Z,38.80
2018-08-22T19:17:10.070Z,38.87
2018-08-22T19:19:43.946Z,38.87
2018-08-22T19:22:15.711Z,39.05
2018-08-22T19:25:03.263Z,38.98
2018-08-22T19:27:34.501Z,39.37
2018-08-22T19:30:07.224Z,38.83
2018-08-22T19:32:37.686Z,39.83
2018-08-22T19:35:07.797Z,39.43
2018-08-22T19:37:37.804Z,39.52
2018-08-22T19:40:09.960Z,40.20
2018-08-22T19:42:41.004Z,40.74
2018-08-22T19:45:11.039Z,41.20
2018-08-22T19:47:41.248Z,41.35
2018-08-22T19:50:11.023Z,41.65
2018-08-22T19:52:40.757Z,41.61
2018-08-22T19:55:11.120Z,41.05
2018-08-22T19:57:41.996Z,41.38
2018-08-22T20:00:14.155Z,41.00
2018-08-22T20:02:44.106Z,41.28
2018-08-22T20:05:14.354Z,41.48
2018-08-22T20:07:44.489Z,41.29
2018-08-22T20:10:14.293Z,41.37
2018-08-22T20:12:52.106Z,41.54
2018-08-22T20:15:22.058Z,41.75
2018-08-22T20:17:53.064Z,41.88
2018-08-22T20:20:23.141Z,41.73
2018-08-22T20:22:55.100Z,42.33
2018-08-22T20:25:25.189Z,42.66
2018-08-22T20:27:54.984Z,42.42
2018-08-22T20:30:24.852Z,42.63
2018-08-22T20:33:00.121Z,43.18
2018-08-22T20:35:34.122Z,43.11
2018-08-22T20:38:07.127Z,44.27
2018-08-22T20:40:37.254Z,45.15
2018-08-22T20:43:08.218Z,44.54
2018-08-22T20:45:38.804Z,45.58
2018-08-22T20:48:13.627Z,45.38
2018-08-22T20:50:45.195Z,45.02
2018-08-22T20:53:18.190Z,45.38
2018-08-22T20:55:48.004Z,45.91
2018-08-22T20:58:36.098Z,46.16
2018-08-22T21:01:06.474Z,46.22
2018-08-22T21:03:36.180Z,46.47
2018-08-22T21:06:11.070Z,46.05
2018-08-22T21:08:41.081Z,46.01
2018-08-22T21:11:11.148Z,46.18
2018-08-22T21:13:41.513Z,45.45
2018-08-22T21:16:11.360Z,45.55
2018-08-22T21:18:41.264Z,45.85
2018-08-22T21:21:27.681Z,45.74
2018-08-22T21:24:04.536Z,45.24
2018-08-22T21:26:41.263Z,45.15
2018-08-22T21:29:11.453Z,44.54
2018-08-22T21:31:41.193Z,44.12
2018-08-22T21:34:16.084Z,44.23
2018-08-22T21:36:46.794Z,44.79
2018-08-22T21:39:21.637Z,44.81
2018-08-22T21:41:51.932Z,45.52
2018-08-22T21:44:23.308Z,45.55
2018-08-22T21:47:01.445Z,45.83
2018-08-22T21:49:31.433Z,46.42
2018-08-22T21:52:02.197Z,46.59
2018-08-22T21:54:32.016Z,47.04
2018-08-22T21:57:01.778Z,47.71
2018-08-22T21:59:31.700Z,47.78
2018-08-22T22:02:07.034Z,48.42
2018-08-22T22:04:38.552Z,49.15
2018-08-22T22:07:10.779Z,48.89
2018-08-22T22:09:41.194Z,50.02
2018-08-22T22:12:16.028Z,49.81
2018-08-22T22:14:46.520Z,50.95
2018-08-22T22:17:16.375Z,51.62
2018-08-22T22:19:46.134Z,51.18
2018-08-22T22:22:15.856Z,51.53
2018-08-22T22:24:51.170Z,52.53
2018-08-22T22:27:21.073Z,52.91
2018-08-22T22:29:52.495Z,52.83
2018-08-22T22:32:22.681Z,53.45
2018-08-22T22:34:52.734Z,53.17
2018-08-22T22:37:22.936Z,54.14
2018-08-22T22:39:52.706Z,53.03
2018-08-22T22:42:27.980Z,52.94
2018-08-22T22:44:58.855Z,53.35
2018-08-22T22:47:30.846Z,53.17
2018-08-22T22:50:01.316Z,53.12
2018-08-22T22:52:36.979Z,53.78
2018-08-22T22:55:07.759Z,53.99
2018-08-22T22:57:39.037Z,54.61
2018-08-22T23:00:12.599Z,54.46
2018-08-22T23:02:42.904Z,54.93
2018-08-22T23:05:12.727Z,55.12
2018-08-22T23:07:43.607Z,54.56
2018-08-22T23:10:15.503Z,54.78
2018-08-22T23:12:46.975Z,55.61
2018-08-22T23:15:19.079Z,55.05
2018-08-22T23:17:50.747Z,54.93
2018-08-22T23:20:45.252Z,55.47
2018-08-22T23:23:31.921Z,56.14
2018-08-22T23:26:07.936Z,55.68
2018-08-22T23:28:37.770Z,55.30
2018-08-22T23:31:07.635Z,55.82
2018-08-22T23:33:37.593Z,55.82
2018-08-22T23:36:07.600Z,56.51
2018-08-22T23:38:39.252Z,55.74
2018-08-22T23:41:08.955Z,56.44
2018-08-22T23:43:44.495Z,55.81
2018-08-22T23:46:14.732Z,55.80
2018-08-22T23:48:44.831Z,56.10
2018-08-22T23:51:15.251Z,55.84
2018-08-22T23:53:48.708Z,56.83
2018-08-22T23:56:25.247Z,57.03
2018-08-22T23:58:55.487Z,56.86
